Time;durP1;ratioP1;P1;durP2;ratioP2;P2;SDS_P1;SDS_P2;PMS_P1;PMS_P2;Temp;Humidity;BMP_temperature;BMP_pressure;BME280_temperature;BME280_humidity;BME280_pressure;Samples;Min_cycle;Max_cycle;Signal;HPM_P1;HPM_P2
2022/01/24 00:03:12;;;;;;;82.70;40.10;;;;;;;-0.13;78.27;101613.67;208220;1319;140502;-67
2022/01/24 00:08:18;;;;;;;76.60;39.00;;;;;;;-0.04;78.14;101612.96;207947;1318;140730;-65
2022/01/24 00:29:27;;;;;;;90.30;42.00;;;;;;;-0.05;78.04;101608.39;208473;1318;139779;-72
2022/01/24 00:34:30;;;;;;;77.40;41.00;;;;;;;-0.07;78.20;101609.02;208783;1318;140485;-70
2022/01/24 00:39:39;;;;;;;69.50;40.20;;;;;;;0.01;77.90;101603.52;208476;1318;139807;-70
2022/01/24 00:54:54;;;;;;;77.60;39.20;;;;;;;-0.02;78.10;101609.30;209114;1319;141095;-69
2022/01/24 00:59:57;;;;;;;72.90;40.60;;;;;;;-0.03;77.87;101608.75;209016;1318;141894;-70
2022/01/24 01:06:01;;;;;;;85.50;38.00;;;;;;;-0.05;77.95;101607.10;208200;1318;140055;-67
2022/01/24 01:21:32;;;;;;;70.10;39.00;;;;;;;-0.03;77.69;101603.86;207391;1318;139403;-69
2022/01/24 01:26:48;;;;;;;69.00;39.00;;;;;;;-0.06;77.87;101598.33;207635;1318;139769;-67
2022/01/24 01:32:16;;;;;;;83.80;38.40;;;;;;;-0.09;78.01;101597.16;207369;1318;139853;-66
2022/01/24 01:37:48;;;;;;;73.70;37.20;;;;;;;-0.11;78.09;101594.85;207783;1318;140445;-68
2022/01/24 01:59:05;;;;;;;64.30;34.10;;;;;;;-0.10;78.13;101596.86;207478;1318;141877;-65
2022/01/24 02:04:09;;;;;;;73.50;36.10;;;;;;;-0.15;77.75;101604.73;207007;1318;142820;-67
2022/01/24 02:09:16;;;;;;;66.50;36.50;;;;;;;-0.18;78.02;101610.57;207366;1318;140852;-65
2022/01/24 02:14:47;;;;;;;65.30;37.40;;;;;;;-0.19;78.02;101618.20;207969;1319;140338;-67
2022/01/24 02:20:24;;;;;;;;;;;;;;;;;;;;;
2022/01/24 02:25:32;;;;;;;80.30;41.40;;;;;;;-0.22;78.20;101619.79;208153;1318;140857;-67
2022/01/24 02:30:51;;;;;;;93.20;49.20;;;;;;;-0.21;78.15;101616.08;208746;1319;141426;-69
2022/01/24 02:36:03;;;;;;;78.30;39.20;;;;;;;-0.21;78.14;101611.88;207301;1322;140447;-69
2022/01/24 02:52:16;;;;;;;64.10;38.90;;;;;;;-0.14;77.89;101615.73;208205;1318;139538;-71
2022/01/24 02:57:23;;;;;;;76.60;39.40;;;;;;;-0.15;77.81;101619.60;208161;1320;140288;-67
2022/01/24 03:02:33;;;;;;;72.40;37.20;;;;;;;-0.18;78.20;101614.60;208520;1316;140164;-68
2022/01/24 03:07:37;;;;;;;73.20;37.80;;;;;;;-0.20;77.90;101606.38;209075;1318;141334;-70
2022/01/24 03:12:47;;;;;;;62.40;35.40;;;;;;;-0.16;78.09;101598.73;208796;1319;140389;-69
2022/01/24 03:17:50;;;;;;;64.00;34.60;;;;;;;-0.10;77.75;101607.36;208171;1318;140464;-68
2022/01/24 03:22:54;;;;;;;63.40;34.80;;;;;;;-0.10;78.02;101614.51;207417;1319;140755;-68
2022/01/24 03:27:57;;;;;;;62.50;32.40;;;;;;;-0.15;77.72;101617.67;207683;1318;162730;-70
2022/01/24 03:33:10;;;;;;;68.80;36.20;;;;;;;-0.23;77.78;101619.01;207921;1319;141419;-68
2022/01/24 03:38:46;;;;;;;62.60;33.80;;;;;;;-0.26;77.63;101619.77;207198;1320;141229;-70
2022/01/24 03:44:01;;;;;;;61.30;33.50;;;;;;;-0.26;77.82;101618.16;207285;1318;141234;-70
2022/01/24 03:49:20;;;;;;;66.80;36.30;;;;;;;-0.26;77.99;101614.93;206947;1319;152893;-70
2022/01/24 03:54:28;;;;;;;65.10;34.50;;;;;;;-0.34;78.06;101616.77;206964;1318;140191;-66
2022/01/24 03:59:35;;;;;;;56.00;29.70;;;;;;;-0.41;78.08;101613.05;207588;1318;139937;-71
2022/01/24 04:04:48;;;;;;;66.90;33.50;;;;;;;-0.44;78.05;101610.48;207107;1318;140449;-68
2022/01/24 04:09:56;;;;;;;73.40;36.70;;;;;;;-0.38;78.05;101610.70;207523;1318;141204;-67
2022/01/24 04:26:00;;;;;;;57.80;31.40;;;;;;;-0.41;78.14;101614.84;208048;1319;139866;-68
2022/01/24 04:31:03;;;;;;;63.40;36.30;;;;;;;-0.42;78.15;101616.84;207451;1318;139699;-68
2022/01/24 04:36:08;;;;;;;74.30;32.70;;;;;;;-0.45;78.01;101611.80;207896;1319;140145;-68
2022/01/24 04:41:17;;;;;;;68.90;34.10;;;;;;;-0.45;77.79;101612.33;208032;1319;140263;-70
2022/01/24 04:46:45;;;;;;;59.70;34.20;;;;;;;-0.41;77.98;101613.73;208491;1319;141268;-67
2022/01/24 04:52:08;;;;;;;64.70;34.90;;;;;;;-0.38;78.09;101616.66;207749;1320;140978;-71
2022/01/24 04:57:20;;;;;;;53.90;33.30;;;;;;;-0.37;77.77;101620.95;209348;1319;140808;-72
2022/01/24 05:02:25;;;;;;;66.60;33.10;;;;;;;-0.39;78.07;101624.59;208497;1320;139701;-71
2022/01/24 05:07:37;;;;;;;69.00;34.80;;;;;;;-0.40;78.00;101629.61;208013;1320;140402;-71
2022/01/24 05:28:37;;;;;;;69.60;36.80;;;;;;;-0.32;78.25;101626.95;207504;1320;140636;-71
2022/01/24 05:33:40;;;;;;;73.10;36.10;;;;;;;-0.31;78.34;101628.77;207561;1320;139818;-69
2022/01/24 05:38:44;;;;;;;73.30;34.40;;;;;;;-0.31;78.37;101632.10;207948;1319;140767;-69
2022/01/24 05:43:50;;;;;;;80.20;35.20;;;;;;;-0.28;78.18;101633.73;207452;1318;141854;-68
2022/01/24 05:48:56;;;;;;;71.50;37.40;;;;;;;-0.27;78.40;101636.13;207207;1318;140319;-68
2022/01/24 05:53:59;;;;;;;72.30;38.00;;;;;;;-0.32;78.14;101633.33;207040;1324;140647;-67
2022/01/24 05:59:07;;;;;;;65.10;36.00;;;;;;;-0.39;78.28;101640.30;207312;1318;139938;-71
2022/01/24 06:04:11;;;;;;;61.20;31.60;;;;;;;-0.46;78.21;101650.63;207246;1318;140556;-71
2022/01/24 06:09:24;;;;;;;730.30;318.50;;;;;;;-0.51;78.13;101655.92;207449;1318;140697;-69
2022/01/24 06:14:33;;;;;;;82.60;41.50;;;;;;;-0.54;78.10;101649.22;206359;1318;140354;-65
2022/01/24 06:19:39;;;;;;;90.50;47.80;;;;;;;-0.60;78.05;101652.26;207651;1319;140872;-68
2022/01/24 06:24:41;;;;;;;78.50;41.90;;;;;;;-0.63;78.44;101659.37;208361;1318;140151;-69
2022/01/24 06:30:06;;;;;;;84.00;39.50;;;;;;;-0.69;78.44;101658.37;207736;1318;140935;-70
2022/01/24 06:35:11;;;;;;;67.10;37.50;;;;;;;-0.70;78.60;101654.44;207027;1318;139511;-69
2022/01/24 06:40:15;;;;;;;79.10;41.10;;;;;;;-0.65;78.49;101660.31;208052;1319;144486;-71
2022/01/24 06:45:17;;;;;;;69.70;36.30;;;;;;;-0.60;78.58;101656.26;207857;1318;140252;-68
2022/01/24 06:50:20;;;;;;;85.70;42.00;;;;;;;-0.56;78.61;101649.31;208493;1318;141237;-66
2022/01/24 06:55:24;;;;;;;68.60;37.30;;;;;;;-0.54;78.49;101649.58;209218;1318;140358;-68
2022/01/24 07:00:26;;;;;;;77.00;37.20;;;;;;;-0.55;78.27;101655.34;208883;1319;140098;-68
2022/01/24 07:05:29;;;;;;;69.50;38.40;;;;;;;-0.47;78.20;101659.51;208671;1314;141457;-68
2022/01/24 07:10:33;;;;;;;73.10;36.40;;;;;;;-0.40;78.26;101667.15;208508;1319;140510;-65
2022/01/24 07:15:41;;;;;;;67.20;37.50;;;;;;;-0.32;78.26;101671.24;209151;1318;140690;-66
2022/01/24 07:20:44;;;;;;;73.70;37.40;;;;;;;-0.24;78.44;101683.19;207226;1319;140576;-66
2022/01/24 07:25:48;;;;;;;67.20;32.50;;;;;;;-0.20;78.26;101693.02;208402;1318;139469;-67
2022/01/24 07:30:51;;;;;;;58.20;33.00;;;;;;;-0.09;78.15;101694.10;208636;1318;142081;-68
2022/01/24 07:35:58;;;;;;;90.00;47.40;;;;;;;-0.03;77.82;101698.71;207587;1318;140606;-70
2022/01/24 07:41:03;;;;;;;59.30;35.60;;;;;;;0.05;78.11;101706.35;207070;1318;140042;-70
2022/01/24 07:46:09;;;;;;;62.40;33.80;;;;;;;0.13;78.16;101710.55;207296;1318;139989;-68
2022/01/24 07:51:15;;;;;;;62.00;36.20;;;;;;;0.20;77.91;101712.80;207710;1318;141548;-68
2022/01/24 07:56:17;;;;;;;62.90;29.70;;;;;;;0.29;78.20;101712.64;208008;1318;140646;-69
2022/01/24 08:01:26;;;;;;;62.10;32.30;;;;;;;0.29;77.73;101710.57;207709;1318;139609;-72
2022/01/24 08:06:33;;;;;;;59.80;31.30;;;;;;;0.27;77.66;101702.70;207543;1319;140980;-72
2022/01/24 08:11:47;;;;;;;66.70;33.60;;;;;;;0.24;77.72;101691.16;208155;1316;140928;-71
2022/01/24 08:16:49;;;;;;;64.60;36.70;;;;;;;0.25;77.61;101687.05;206913;1318;141979;-75
2022/01/24 08:21:59;;;;;;;63.50;33.50;;;;;;;0.29;77.84;101689.35;207212;1318;139461;-68
2022/01/24 08:27:06;;;;;;;58.40;29.50;;;;;;;0.33;77.98;101676.63;206937;1319;140374;-71
2022/01/24 08:32:24;;;;;;;59.60;33.90;;;;;;;0.37;77.83;101688.55;207066;1320;139774;-70
2022/01/24 08:37:27;;;;;;;71.30;33.20;;;;;;;0.45;77.80;101683.11;207129;1320;141283;-71
2022/01/24 08:48:31;;;;;;;54.50;32.10;;;;;;;0.69;77.78;101684.98;206872;1322;139571;-69
2022/01/24 08:53:35;;;;;;;57.90;32.60;;;;;;;0.78;77.40;101695.47;208030;1318;139679;-68
2022/01/24 08:58:39;;;;;;;72.60;35.80;;;;;;;0.97;77.32;101699.83;207962;1319;140642;-76
2022/01/24 09:03:43;;;;;;;58.50;32.70;;;;;;;1.15;77.58;101703.81;207241;1320;139568;-72
2022/01/24 09:08:48;;;;;;;53.00;29.50;;;;;;;1.34;76.77;101703.80;207592;1319;141744;-73
2022/01/24 09:14:04;;;;;;;58.90;32.40;;;;;;;1.50;76.63;101711.73;208130;1319;139974;-73
2022/01/24 09:19:06;;;;;;;65.40;32.20;;;;;;;1.65;76.31;101710.27;208452;1320;140354;-73
2022/01/24 09:24:12;;;;;;;60.60;32.20;;;;;;;1.82;76.05;101703.27;208328;1316;139786;-73
2022/01/24 09:29:15;;;;;;;48.30;28.10;;;;;;;2.00;75.90;101702.25;208017;1320;140273;-73
2022/01/24 09:34:20;;;;;;;62.10;32.10;;;;;;;2.13;75.56;101700.41;207552;1319;139671;-71
2022/01/24 09:39:27;;;;;;;56.50;32.60;;;;;;;2.31;75.09;101694.66;207871;1320;141339;-74
2022/01/24 09:44:51;;;;;;;54.10;32.30;;;;;;;2.40;74.99;101689.98;207328;1321;140527;-71
2022/01/24 09:49:57;;;;;;;48.10;28.50;;;;;;;2.44;74.88;101691.55;206797;1318;141024;-72
2022/01/24 09:54:59;;;;;;;53.80;29.20;;;;;;;2.50;74.72;101688.74;207851;1319;142169;-72
2022/01/24 10:00:05;;;;;;;55.70;29.80;;;;;;;2.50;74.46;101678.74;207056;1319;140846;-73
2022/01/24 10:05:33;;;;;;;58.70;31.20;;;;;;;2.53;74.41;101671.33;206646;1321;142062;-72
2022/01/24 10:11:01;;;;;;;50.20;28.20;;;;;;;2.59;74.22;101671.52;206724;1320;140736;-73
2022/01/24 10:16:36;;;;;;;54.00;29.20;;;;;;;2.68;74.17;101667.33;206587;1320;140757;-71
2022/01/24 10:21:42;;;;;;;47.80;29.00;;;;;;;2.71;73.51;101652.54;207120;1320;144142;-72
2022/01/24 10:26:44;;;;;;;70.30;30.70;;;;;;;2.78;73.67;101643.20;206681;1318;141309;-70
2022/01/24 10:31:48;;;;;;;48.00;25.90;;;;;;;2.87;73.78;101647.87;207600;1319;142356;-71
2022/01/24 10:36:56;;;;;;;52.00;28.00;;;;;;;2.88;73.21;101649.14;207996;1318;141045;-72
2022/01/24 10:47:52;;;;;;;62.10;30.10;;;;;;;2.65;73.04;101647.36;207071;1319;140326;-74
2022/01/24 10:53:08;;;;;;;48.50;25.70;;;;;;;2.57;72.91;101639.90;208182;1316;140380;-72
2022/01/24 10:58:17;;;;;;;50.40;28.30;;;;;;;2.47;72.65;101637.45;207704;1321;141140;-70
2022/01/24 11:03:26;;;;;;;48.90;26.60;;;;;;;2.49;73.06;101633.73;207015;1318;139562;-70
2022/01/24 11:08:38;;;;;;;49.00;24.50;;;;;;;2.54;73.11;101640.10;208106;1320;141170;-68
2022/01/24 11:13:43;;;;;;;54.40;30.40;;;;;;;2.59;73.29;101638.48;207350;1321;140289;-71
2022/01/24 11:18:46;;;;;;;48.00;27.80;;;;;;;2.66;73.21;101623.94;208819;1321;140754;-71
2022/01/24 11:23:50;;;;;;;44.60;29.10;;;;;;;2.78;73.21;101608.99;207258;1320;140125;-70
2022/01/24 11:28:54;;;;;;;58.60;30.40;;;;;;;2.90;72.98;101614.21;208099;1321;139526;-72
2022/01/24 11:34:32;;;;;;;47.80;28.60;;;;;;;3.00;72.30;101612.84;207552;1321;141136;-69
2022/01/24 11:39:55;;;;;;;49.80;27.40;;;;;;;3.00;72.33;101611.55;208329;1319;141476;-74
2022/01/24 11:45:04;;;;;;;41.10;24.40;;;;;;;3.00;72.42;101602.41;206997;1321;140637;-71
2022/01/24 11:50:42;;;;;;;46.60;25.40;;;;;;;2.96;72.39;101609.28;207240;1321;140542;-77
2022/01/24 11:55:46;;;;;;;46.20;22.90;;;;;;;2.89;72.54;101605.89;207768;1319;140181;-71
2022/01/24 12:00:51;;;;;;;51.00;26.90;;;;;;;2.85;72.12;101591.70;206806;1321;142816;-72
2022/01/24 12:06:08;;;;;;;54.20;26.90;;;;;;;2.81;72.18;101589.03;207240;1321;140652;-71
2022/01/24 12:11:35;;;;;;;51.70;30.10;;;;;;;2.70;72.25;101584.50;206803;1318;140253;-74
2022/01/24 12:16:58;;;;;;;45.00;26.20;;;;;;;2.60;72.31;101582.39;207540;1318;140230;-74
2022/01/24 12:22:38;;;;;;;42.10;25.20;;;;;;;2.57;72.62;101581.27;207088;1321;140428;-70
2022/01/24 12:28:32;;;;;;;46.00;23.10;;;;;;;2.52;72.36;101574.50;206609;1321;140910;-72
2022/01/24 12:33:42;;;;;;;59.30;29.70;;;;;;;2.55;72.45;101578.11;206948;1321;141468;-72
2022/01/24 12:38:59;;;;;;;50.80;30.00;;;;;;;2.59;72.56;101567.34;206542;1319;140664;-71
2022/01/24 12:49:08;;;;;;;61.10;34.20;;;;;;;2.54;72.63;101555.23;207735;1320;141048;-73
2022/01/24 12:54:11;;;;;;;43.30;25.40;;;;;;;2.46;72.46;101554.49;207056;1321;140818;-72
2022/01/24 12:59:18;;;;;;;43.60;25.40;;;;;;;2.39;72.21;101551.71;207515;1321;141576;-73
2022/01/24 13:04:40;;;;;;;48.80;27.90;;;;;;;2.35;72.30;101543.89;207750;1318;141282;-69
2022/01/24 13:09:45;;;;;;;52.90;28.50;;;;;;;2.29;72.19;101545.12;207443;1319;142728;-72
2022/01/24 13:14:55;;;;;;;52.00;28.80;;;;;;;2.25;72.55;101540.73;207336;1321;646899;-69
2022/01/24 13:25:23;;;;;;;55.90;30.90;;;;;;;2.24;72.55;101542.40;208003;1321;140046;-71
2022/01/24 13:30:32;;;;;;;52.70;30.00;;;;;;;2.25;72.29;101541.27;208031;1321;151041;-72
2022/01/24 13:35:35;;;;;;;61.00;30.70;;;;;;;2.28;72.44;101533.63;207443;1318;144087;-72
2022/01/24 13:40:54;;;;;;;53.10;31.50;;;;;;;2.28;72.51;101525.92;208886;1321;140976;-72
2022/01/24 13:45:58;;;;;;;40.30;24.20;;;;;;;2.23;72.50;101527.44;207134;1321;141106;-71
2022/01/24 13:51:01;;;;;;;49.00;25.70;;;;;;;2.15;72.73;101529.98;208111;1318;140656;-68
2022/01/24 13:56:30;;;;;;;51.10;26.30;;;;;;;2.08;72.57;101525.33;206715;1318;140992;-68
2022/01/24 14:01:35;;;;;;;52.70;26.70;;;;;;;2.01;72.66;101519.48;207054;1321;140344;-69
2022/01/24 14:06:39;;;;;;;47.00;24.30;;;;;;;1.93;72.58;101521.38;207845;1321;141358;-70
2022/01/24 14:11:44;;;;;;;42.50;27.30;;;;;;;1.92;72.33;101516.86;207505;1321;141935;-72
2022/01/24 14:17:09;;;;;;;58.50;31.00;;;;;;;1.86;72.50;101521.31;207968;1318;140011;-72
2022/01/24 14:22:17;;;;;;;48.60;26.10;;;;;;;1.79;72.51;101523.02;206478;1320;139844;-70
2022/01/24 14:27:58;;;;;;;50.70;27.60;;;;;;;1.73;72.68;101522.81;206860;1321;140472;-69
2022/01/24 14:33:22;;;;;;;48.70;27.00;;;;;;;1.67;72.87;101526.98;207153;1320;140855;-68
2022/01/24 14:38:37;;;;;;;51.30;29.00;;;;;;;1.61;72.94;101532.74;207157;1321;140296;-69
2022/01/24 14:49:09;;;;;;;48.50;30.00;;;;;;;1.61;73.24;101534.13;206622;1321;141876;-68
2022/01/24 14:54:24;;;;;;;54.60;31.90;;;;;;;1.62;73.38;101542.88;207602;1321;139503;-69
2022/01/24 14:59:28;;;;;;;57.10;30.80;;;;;;;1.59;73.44;101544.46;207566;1319;140487;-71
2022/01/24 15:04:31;;;;;;;54.00;31.50;;;;;;;1.55;73.31;101544.84;208459;1321;139238;-71
2022/01/24 15:09:33;;;;;;;57.40;33.40;;;;;;;1.52;73.32;101543.37;208471;1321;141841;-76
2022/01/24 15:14:42;;;;;;;56.30;31.50;;;;;;;1.49;73.32;101537.53;208787;1321;140320;-79
2022/01/24 15:30:19;;;;;;;68.70;35.90;;;;;;;1.39;73.28;101523.70;206939;1319;141233;-79
2022/01/24 15:35:32;;;;;;;73.20;40.40;;;;;;;1.39;73.54;101521.18;207452;1321;141158;-80
2022/01/24 15:40:43;;;;;;;74.10;42.10;;;;;;;1.35;73.54;101516.77;208099;1316;139631;-82
2022/01/24 15:51:13;;;;;;;69.50;38.90;;;;;;;1.26;73.80;101518.95;206803;1321;141660;-78
2022/01/24 16:01:19;;;;;;;73.90;39.60;;;;;;;1.15;73.96;101519.24;207781;1316;139918;-73
2022/01/24 16:06:23;;;;;;;83.60;39.40;;;;;;;1.14;73.91;101517.08;207848;1319;140812;-79
2022/01/24 16:11:31;;;;;;;77.90;42.70;;;;;;;1.18;73.93;101505.20;206996;1319;140082;-78
2022/01/24 16:17:00;;;;;;;73.60;42.90;;;;;;;1.24;74.00;101497.63;207232;1319;140580;-70
2022/01/24 16:27:42;;;;;;;80.40;42.70;;;;;;;1.24;74.20;101490.80;206895;1319;139914;-73
2022/01/24 16:32:53;;;;;;;80.80;40.50;;;;;;;1.19;74.19;101493.86;206391;1319;139894;-73
2022/01/24 16:38:01;;;;;;;78.70;41.90;;;;;;;1.16;73.98;101490.83;206855;1321;139800;-74
2022/01/24 16:48:42;;;;;;;81.20;40.90;;;;;;;1.09;74.23;101494.94;206872;1319;141503;-72
2022/01/24 16:53:47;;;;;;;74.80;45.40;;;;;;;1.12;74.39;101491.16;207718;1319;141802;-78
2022/01/24 16:59:00;;;;;;;89.50;45.50;;;;;;;1.13;74.57;101489.65;207427;1319;150381;-72
2022/01/24 17:04:03;;;;;;;79.60;40.20;;;;;;;1.13;74.63;101489.32;207081;1321;140409;-81
2022/01/24 17:09:08;;;;;;;83.00;43.50;;;;;;;1.10;74.24;101490.27;208466;1321;140931;-72
2022/01/24 17:14:19;;;;;;;91.90;43.70;;;;;;;1.07;74.66;101492.85;207813;1320;140134;-73
2022/01/24 17:19:23;;;;;;;94.10;48.70;;;;;;;1.04;74.44;101494.94;207534;1321;142756;-72
2022/01/24 17:24:32;;;;;;;83.50;45.00;;;;;;;1.03;74.60;101494.70;207739;1318;140805;-74
2022/01/24 17:29:54;;;;;;;92.00;48.20;;;;;;;1.08;74.50;101492.93;208049;1319;144530;-69
2022/01/24 17:35:28;;;;;;;83.20;47.60;;;;;;;1.09;74.48;101494.88;209116;1321;144374;-70
2022/01/24 17:40:31;;;;;;;91.40;51.10;;;;;;;1.09;74.53;101502.09;208536;1321;140812;-71
2022/01/24 17:45:34;;;;;;;98.40;46.90;;;;;;;1.10;74.68;101493.42;207699;1321;140794;-69
2022/01/24 17:50:42;;;;;;;96.40;49.70;;;;;;;1.09;74.84;101490.04;206983;1321;142233;-70
2022/01/24 17:55:50;;;;;;;93.70;49.00;;;;;;;1.04;74.97;101483.92;206815;1321;141021;-66
2022/01/24 18:00:54;;;;;;;91.30;46.90;;;;;;;0.97;74.67;101481.84;206226;1321;140867;-70
2022/01/24 18:06:01;;;;;;;95.40;46.90;;;;;;;0.95;74.64;101480.84;206782;1320;141358;-68
2022/01/24 18:11:03;;;;;;;103.90;50.90;;;;;;;0.94;75.00;101473.41;207398;1318;140741;-69
2022/01/24 18:16:09;;;;;;;66.20;36.50;;;;;;;0.93;74.98;101473.44;206842;1320;140806;-68
2022/01/24 18:21:12;;;;;;;84.00;41.70;;;;;;;0.90;75.02;101473.02;206978;1320;141491;-67
2022/01/24 18:26:17;;;;;;;92.80;48.20;;;;;;;0.86;75.56;101473.23;207965;1320;142245;-73
2022/01/24 18:31:19;;;;;;;98.00;46.20;;;;;;;0.83;75.71;101474.18;207065;1320;140757;-76
2022/01/24 18:36:22;;;;;;;93.90;45.50;;;;;;;0.85;75.16;101471.67;207027;1319;140923;-69
2022/01/24 18:41:26;;;;;;;96.50;49.50;;;;;;;0.89;75.80;101468.27;206763;1320;141543;-68
2022/01/24 18:46:28;;;;;;;81.90;45.30;;;;;;;0.89;75.72;101470.48;207428;1320;141262;-69
2022/01/24 18:51:35;;;;;;;73.30;42.20;;;;;;;0.86;75.79;101477.95;207451;1319;141013;-73
2022/01/24 18:56:38;;;;;;;85.90;44.10;;;;;;;0.82;75.86;101480.22;206710;1318;142395;-74
2022/01/24 19:01:41;;;;;;;80.60;40.90;;;;;;;0.83;76.23;101474.87;207794;1320;140955;-71
2022/01/24 19:06:46;;;;;;;87.00;47.90;;;;;;;0.85;76.53;101466.48;208239;1320;140513;-74
2022/01/24 19:11:49;;;;;;;84.20;44.70;;;;;;;0.85;76.51;101466.86;208147;1320;141575;-74
2022/01/24 19:16:54;;;;;;;84.40;45.10;;;;;;;0.85;76.72;101467.03;206917;1320;143603;-79
2022/01/24 19:27:20;;;;;;;88.40;43.80;;;;;;;0.78;76.97;101469.17;207115;1318;141244;-78
2022/01/24 19:32:28;;;;;;;80.60;45.00;;;;;;;0.78;77.37;101471.63;206440;1318;141717;-79
2022/01/24 19:37:31;;;;;;;83.60;44.90;;;;;;;0.80;77.65;101465.48;208769;1319;140355;-81
2022/01/24 19:42:38;;;;;;;92.60;45.00;;;;;;;0.84;77.76;101460.28;208405;1320;141348;-75
2022/01/24 19:47:40;;;;;;;92.70;44.20;;;;;;;0.83;77.71;101452.98;207842;1318;141718;-71
2022/01/24 19:52:46;;;;;;;82.30;41.80;;;;;;;0.81;77.96;101447.55;207030;1321;140740;-71
2022/01/24 19:57:55;;;;;;;83.10;43.70;;;;;;;0.82;77.58;101442.76;207697;1321;141532;-78
2022/01/24 20:02:59;;;;;;;89.50;47.20;;;;;;;0.86;77.80;101445.10;209346;1322;141681;-73
2022/01/24 20:08:12;;;;;;;94.20;45.50;;;;;;;0.85;77.96;101447.77;207353;1318;140588;-74
2022/01/24 20:13:18;;;;;;;95.20;45.40;;;;;;;0.82;78.00;101444.19;207675;1320;140450;-71
2022/01/24 20:18:23;;;;;;;100.00;45.50;;;;;;;0.79;78.13;101446.50;208385;1320;140098;-81
2022/01/24 20:23:26;;;;;;;84.50;44.50;;;;;;;0.79;78.15;101443.04;207064;1319;140992;-81
2022/01/24 20:28:30;;;;;;;102.30;51.50;;;;;;;0.79;78.48;101437.92;207114;1318;141775;-81
2022/01/24 20:33:36;;;;;;;87.70;48.50;;;;;;;0.76;78.53;101439.56;207964;1321;141512;-84
2022/01/24 20:38:41;;;;;;;94.40;47.20;;;;;;;0.68;78.52;101441.27;207036;1321;139331;-75
2022/01/24 20:43:49;;;;;;;89.00;46.50;;;;;;;0.64;78.68;101440.89;207228;1321;162318;-74
2022/01/24 20:48:53;;;;;;;97.30;47.20;;;;;;;0.65;78.42;101440.02;207039;1320;140329;-81
2022/01/24 20:54:08;;;;;;;97.50;48.20;;;;;;;0.65;78.86;101436.51;207165;1319;140028;-78
2022/01/24 20:59:12;;;;;;;91.80;45.30;;;;;;;0.66;79.09;101427.31;207012;1321;140451;-75
2022/01/24 21:04:16;;;;;;;101.10;48.20;;;;;;;0.64;79.01;101423.29;206836;1320;139921;-76
2022/01/24 21:09:19;;;;;;;100.10;49.90;;;;;;;0.63;79.18;101425.95;206924;1318;140680;-76
2022/01/24 21:14:30;;;;;;;93.60;50.40;;;;;;;0.67;79.54;101418.84;206874;1319;423875;-68
2022/01/24 21:19:40;;;;;;;91.50;50.50;;;;;;;0.68;79.37;101419.45;207419;1318;140268;-74
2022/01/24 21:24:43;;;;;;;99.30;48.10;;;;;;;0.65;79.84;101420.40;207798;1321;139668;-79
2022/01/24 21:29:46;;;;;;;85.80;42.00;;;;;;;0.66;79.73;101415.02;207072;1321;140239;-72
2022/01/24 21:39:59;;;;;;;76.70;44.20;;;;;;;0.65;79.93;101411.45;208573;1320;140287;-77
2022/01/24 21:45:04;;;;;;;87.20;45.50;;;;;;;0.62;79.98;101406.08;208354;1320;142133;-76
2022/01/24 21:50:10;;;;;;;83.30;39.40;;;;;;;0.62;80.05;101393.73;208179;1320;140026;-76
2022/01/24 21:55:25;;;;;;;75.60;42.90;;;;;;;0.68;79.89;101386.55;208349;1316;144700;-78
2022/01/24 22:00:29;;;;;;;73.00;40.90;;;;;;;0.75;79.83;101376.53;208585;1319;141147;-74
2022/01/24 22:05:32;;;;;;;107.30;58.00;;;;;;;0.78;80.25;101374.15;207583;1322;141338;-78
2022/01/24 22:10:35;;;;;;;78.30;39.50;;;;;;;0.79;80.25;101367.77;207876;1320;143382;-74
2022/01/24 22:15:39;;;;;;;84.10;37.40;;;;;;;0.85;80.36;101365.70;208622;1325;141852;-71
2022/01/24 22:20:43;;;;;;;70.20;39.00;;;;;;;0.86;80.13;101359.10;208206;1320;141767;-69
2022/01/24 22:25:50;;;;;;;79.80;43.80;;;;;;;0.83;80.40;101349.36;207999;1320;140530;-75
2022/01/24 22:30:54;;;;;;;69.20;34.20;;;;;;;0.84;80.48;101345.46;206748;1320;140929;-70
2022/01/24 22:35:57;;;;;;;71.20;34.20;;;;;;;0.84;80.24;101337.95;206899;1319;141102;-75
2022/01/24 22:41:09;;;;;;;70.60;37.50;;;;;;;0.85;80.45;101332.56;207335;1321;142681;-74
2022/01/24 22:46:14;;;;;;;64.20;30.70;;;;;;;0.82;80.95;101328.44;206884;1321;140828;-73
2022/01/24 22:51:18;;;;;;;64.40;31.40;;;;;;;0.77;81.23;101327.13;207420;1323;140925;-74
2022/01/24 22:56:22;;;;;;;58.20;30.70;;;;;;;0.82;81.13;101324.30;207690;1320;140390;-74
2022/01/24 23:01:26;;;;;;;64.60;34.00;;;;;;;0.85;81.11;101320.38;206693;1320;141017;-76
2022/01/24 23:06:30;;;;;;;62.90;31.60;;;;;;;0.84;81.04;101318.83;207386;1320;141472;-76
2022/01/24 23:11:34;;;;;;;53.20;26.10;;;;;;;0.79;81.13;101320.33;206871;1320;141341;-73
2022/01/24 23:21:59;;;;;;;60.60;27.70;;;;;;;0.77;81.40;101313.30;206443;1320;143060;-72
2022/01/24 23:32:18;;;;;;;53.00;23.50;;;;;;;0.83;81.56;101290.72;207095;1319;141356;-72
2022/01/24 23:42:45;;;;;;;54.10;27.90;;;;;;;0.91;81.54;101287.98;207813;1319;141651;-69
2022/01/24 23:47:49;;;;;;;56.90;25.60;;;;;;;0.93;81.66;101287.77;206987;1320;140802;-76
2022/01/24 23:52:51;;;;;;;47.30;23.80;;;;;;;0.97;81.89;101279.16;207648;1319;140175;-76
2022/01/24 23:58:02;;;;;;;50.30;25.10;;;;;;;1.04;81.86;101276.97;209126;1319;139840;-78
